Sioux Arrow — WAG6168 — position and weather

sailwx.info

Track history (hours):
 
Tides and Currents Weather Stations Pressure Air Temp Water Temp Dewpoint Dewpoint Depression Visibility Wind Speed Wind Dir Waves Ship Positions

Sioux Arrow

Owner: HARMON, JACK L, PORT ANGELES, WA. More information available from US FCC via Universal Licensing System and Coast Guard Vessel Documentation Center.

Last reported at 2014-Dec-21 02:10 UTC. Time now 2014-Dec-21 11:22 UTC.
Position N 48°31' W 122°36'.

Type: Port tender. MMSI: 366973370.

Date/timePositionNaut miles runAvg speedWind from/ knotsBaromVisibWave heightAir tempDewpointWater temp
2014-Dec-21 02:10N 48°31' W 122°36'0 0.1
2014-Dec-21 00:33N 48°31' W 122°36'0 0.0
2014-Dec-20 20:14N 48°31' W 122°36'0 0.0
2014-Dec-20 19:34N 48°31' W 122°36'0 0.0
2014-Dec-20 04:16N 48°31' W 122°36'0 0.5
2014-Dec-20 03:33N 48°31' W 122°36'1 1.1
2014-Dec-20 02:33N 48°31' W 122°34'1 1.4
2014-Dec-20 01:33N 48°31' W 122°36'0 0.0
2014-Dec-20 00:33N 48°31' W 122°36'1 0.6
2014-Dec-19 23:33N 48°31' W 122°36'1 0.6
2014-Dec-19 22:33N 48°31' W 122°36'0 0.4
2014-Dec-19 21:33N 48°31' W 122°36'1 1.1
2014-Dec-19 20:33N 48°31' W 122°34'1 1.5
2014-Dec-19 19:33N 48°31' W 122°36'6 5.8
2014-Dec-19 18:31N 48°36' W 122°34'5 5.5
2014-Dec-19 17:33N 48°31' W 122°35'0 0.4
2014-Dec-19 16:33N 48°31' W 122°35'1 0.1
2014-Dec-19 07:11N 48°31' W 122°36'0 0.0
2014-Dec-19 06:34N 48°31' W 122°36'0 0.0
2014-Dec-19 05:34N 48°31' W 122°36'0 0.0
2014-Dec-19 04:34N 48°31' W 122°36'0 0.0
2014-Dec-19 03:33N 48°31' W 122°36'0 0.0
2014-Dec-19 02:33N 48°31' W 122°36'0 0.0
2014-Dec-19 01:34N 48°31' W 122°36'0 0.0
2014-Dec-19 00:33N 48°31' W 122°36'0 0.0
2014-Dec-18 23:34N 48°31' W 122°36'0 0.0
2014-Dec-18 22:34N 48°31' W 122°36'0 0.0
2014-Dec-18 21:34N 48°31' W 122°36'0 0.0
2014-Dec-18 20:33N 48°31' W 122°36'0 0.0
2014-Dec-18 19:33N 48°31' W 122°36'0 0.0
2014-Dec-18 18:33N 48°31' W 122°36'0 0.0
2014-Dec-18 07:20N 48°31' W 122°36'0 0.0
2014-Dec-18 06:33N 48°31' W 122°36'1 1.4
2014-Dec-18 05:33N 48°31' W 122°34'0 0.1
2014-Dec-18 04:33N 48°31' W 122°34'1 1.4
2014-Dec-18 03:33N 48°31' W 122°36'0 0.0
2014-Dec-18 02:33N 48°31' W 122°36'0 0.0
2014-Dec-18 01:33N 48°31' W 122°36'0 0.5
2014-Dec-18 00:33N 48°31' W 122°36'1 0.9
2014-Dec-17 23:33N 48°31' W 122°35'1 1.1
2014-Dec-17 22:33N 48°31' W 122°36'0 0.3
2014-Dec-17 21:33N 48°31' W 122°36'0 0.1
2014-Dec-17 20:33N 48°31' W 122°36'0 0.1
2014-Dec-17 19:33N 48°31' W 122°36'0 0.0
2014-Dec-17 18:33N 48°31' W 122°36'0 0.0
2014-Dec-17 17:33N 48°31' W 122°36'1 0.9
2014-Dec-17 16:33N 48°31' W 122°35'1 0.8
2014-Dec-17 15:33N 48°31' W 122°36'0 0.0
2014-Dec-17 06:22N 48°31' W 122°36'0 0.0
2014-Dec-17 05:33N 48°31' W 122°36'0 0.0
2014-Dec-17 04:33N 48°31' W 122°36'0 0.0
2014-Dec-17 03:33N 48°31' W 122°36'0 0.0
2014-Dec-17 02:33N 48°31' W 122°36'0 0.0
2014-Dec-17 01:33N 48°31' W 122°36'1 0.5
2014-Dec-17 00:33N 48°31' W 122°36'0 0.4
2014-Dec-16 23:33N 48°31' W 122°36'5 5.5
2014-Dec-16 22:33N 48°35' W 122°32'6 5.6
2014-Dec-16 21:33N 48°31' W 122°36'0 0.0
2014-Dec-16 20:33N 48°31' W 122°36'0 0.0
2014-Dec-16 16:33N 48°31' W 122°36'0 0.0
2014-Dec-16 15:33N 48°31' W 122°36'0 0.0
2014-Dec-16 14:33N 48°31' W 122°36'0 0.0
2014-Dec-16 13:33N 48°31' W 122°36'0 0.0
2014-Dec-16 12:33N 48°31' W 122°36'0 0.0
2014-Dec-16 11:33N 48°31' W 122°36'0 0.0
2014-Dec-16 10:33N 48°31' W 122°36'0 0.0
2014-Dec-16 09:33N 48°31' W 122°36'0 0.0
2014-Dec-16 08:33N 48°31' W 122°36'2 1.9
2014-Dec-16 07:33N 48°32' W 122°34'2 0.5
2014-Dec-16 04:06N 48°31' W 122°36'0 0.0
2014-Dec-16 03:32N 48°31' W 122°36'1 0.8
2014-Dec-16 02:33N 48°31' W 122°35'1 0.8
2014-Dec-16 01:32N 48°31' W 122°36'1 0.6
2014-Dec-15 23:11N 48°31' W 122°34'1 1.0
2014-Dec-15 22:30N 48°31' W 122°35'0 0.1
2014-Dec-15 20:24N 48°31' W 122°35'0 0.1
2014-Dec-15 18:34N 48°31' W 122°35'0 0.1
2014-Dec-15 17:28N 48°31' W 122°35'1 0.9
2014-Dec-15 16:19N 48°31' W 122°36'1 0.2
2014-Dec-15 10:33N 48°31' W 122°35'1 0.0
2014-Dec-13 20:27N 48°32' W 122°34'2 1.9
2014-Dec-13 19:32N 48°33' W 122°34'1 1.0
2014-Dec-13 18:32N 48°34' W 122°34'4 0.2
2014-Dec-12 19:20N 48°31' W 122°36'0 0.0
2014-Dec-12 15:17N 48°31' W 122°36'5 6.1
2014-Dec-12 14:24N 48°35' W 122°32'2 0.1
2014-Dec-11 21:25N 48°34' W 122°34'2 0.4
2014-Dec-11 16:31N 48°35' W 122°32'  
Track history (hours):
 
Tides and Currents Weather Stations Pressure Air Temp Water Temp Dewpoint Dewpoint Depression Visibility Wind Speed Wind Dir Waves Ship Positions

Sioux Arrow

Owner: HARMON, JACK L, PORT ANGELES, WA. More information available from US FCC via Universal Licensing System and Coast Guard Vessel Documentation Center.

Last reported at 2014-Dec-21 02:10 UTC. Time now 2014-Dec-21 11:22 UTC.
Position N 48°31' W 122°36'.

Type: Port tender. MMSI: 366973370.

Date/timePositionNaut miles runAvg speedWind from/ knotsBaromVisibWave heightAir tempDewpointWater temp
2014-Dec-21 02:10N 48°31' W 122°36'0 0.1
2014-Dec-21 00:33N 48°31' W 122°36'0 0.0
2014-Dec-20 20:14N 48°31' W 122°36'0 0.0
2014-Dec-20 19:34N 48°31' W 122°36'0 0.0
2014-Dec-20 04:16N 48°31' W 122°36'0 0.5
2014-Dec-20 03:33N 48°31' W 122°36'1 1.1
2014-Dec-20 02:33N 48°31' W 122°34'1 1.4
2014-Dec-20 01:33N 48°31' W 122°36'0 0.0
2014-Dec-20 00:33N 48°31' W 122°36'1 0.6
2014-Dec-19 23:33N 48°31' W 122°36'1 0.6
2014-Dec-19 22:33N 48°31' W 122°36'0 0.4
2014-Dec-19 21:33N 48°31' W 122°36'1 1.1
2014-Dec-19 20:33N 48°31' W 122°34'1 1.5
2014-Dec-19 19:33N 48°31' W 122°36'6 5.8
2014-Dec-19 18:31N 48°36' W 122°34'5 5.5
2014-Dec-19 17:33N 48°31' W 122°35'0 0.4
2014-Dec-19 16:33N 48°31' W 122°35'1 0.1
2014-Dec-19 07:11N 48°31' W 122°36'0 0.0
2014-Dec-19 06:34N 48°31' W 122°36'0 0.0
2014-Dec-19 05:34N 48°31' W 122°36'0 0.0
2014-Dec-19 04:34N 48°31' W 122°36'0 0.0
2014-Dec-19 03:33N 48°31' W 122°36'0 0.0
2014-Dec-19 02:33N 48°31' W 122°36'0 0.0
2014-Dec-19 01:34N 48°31' W 122°36'0 0.0
2014-Dec-19 00:33N 48°31' W 122°36'0 0.0
2014-Dec-18 23:34N 48°31' W 122°36'0 0.0
2014-Dec-18 22:34N 48°31' W 122°36'0 0.0
2014-Dec-18 21:34N 48°31' W 122°36'0 0.0
2014-Dec-18 20:33N 48°31' W 122°36'0 0.0
2014-Dec-18 19:33N 48°31' W 122°36'0 0.0
2014-Dec-18 18:33N 48°31' W 122°36'0 0.0
2014-Dec-18 07:20N 48°31' W 122°36'0 0.0
2014-Dec-18 06:33N 48°31' W 122°36'1 1.4
2014-Dec-18 05:33N 48°31' W 122°34'0 0.1
2014-Dec-18 04:33N 48°31' W 122°34'1 1.4
2014-Dec-18 03:33N 48°31' W 122°36'0 0.0
2014-Dec-18 02:33N 48°31' W 122°36'0 0.0
2014-Dec-18 01:33N 48°31' W 122°36'0 0.5
2014-Dec-18 00:33N 48°31' W 122°36'1 0.9
2014-Dec-17 23:33N 48°31' W 122°35'1 1.1
2014-Dec-17 22:33N 48°31' W 122°36'0 0.3
2014-Dec-17 21:33N 48°31' W 122°36'0 0.1
2014-Dec-17 20:33N 48°31' W 122°36'0 0.1
2014-Dec-17 19:33N 48°31' W 122°36'0 0.0
2014-Dec-17 18:33N 48°31' W 122°36'0 0.0
2014-Dec-17 17:33N 48°31' W 122°36'1 0.9
2014-Dec-17 16:33N 48°31' W 122°35'1 0.8
2014-Dec-17 15:33N 48°31' W 122°36'0 0.0
2014-Dec-17 06:22N 48°31' W 122°36'0 0.0
2014-Dec-17 05:33N 48°31' W 122°36'0 0.0
2014-Dec-17 04:33N 48°31' W 122°36'0 0.0
2014-Dec-17 03:33N 48°31' W 122°36'0 0.0
2014-Dec-17 02:33N 48°31' W 122°36'0 0.0
2014-Dec-17 01:33N 48°31' W 122°36'1 0.5
2014-Dec-17 00:33N 48°31' W 122°36'0 0.4
2014-Dec-16 23:33N 48°31' W 122°36'5 5.5
2014-Dec-16 22:33N 48°35' W 122°32'6 5.6
2014-Dec-16 21:33N 48°31' W 122°36'0 0.0
2014-Dec-16 20:33N 48°31' W 122°36'0 0.0
2014-Dec-16 16:33N 48°31' W 122°36'0 0.0
2014-Dec-16 15:33N 48°31' W 122°36'0 0.0
2014-Dec-16 14:33N 48°31' W 122°36'0 0.0
2014-Dec-16 13:33N 48°31' W 122°36'0 0.0
2014-Dec-16 12:33N 48°31' W 122°36'0 0.0
2014-Dec-16 11:33N 48°31' W 122°36'0 0.0
2014-Dec-16 10:33N 48°31' W 122°36'0 0.0
2014-Dec-16 09:33N 48°31' W 122°36'0 0.0
2014-Dec-16 08:33N 48°31' W 122°36'2 1.9
2014-Dec-16 07:33N 48°32' W 122°34'2 0.5
2014-Dec-16 04:06N 48°31' W 122°36'0 0.0
2014-Dec-16 03:32N 48°31' W 122°36'1 0.8
2014-Dec-16 02:33N 48°31' W 122°35'1 0.8
2014-Dec-16 01:32N 48°31' W 122°36'1 0.6
2014-Dec-15 23:11N 48°31' W 122°34'1 1.0
2014-Dec-15 22:30N 48°31' W 122°35'0 0.1
2014-Dec-15 20:24N 48°31' W 122°35'0 0.1
2014-Dec-15 18:34N 48°31' W 122°35'0 0.1
2014-Dec-15 17:28N 48°31' W 122°35'1 0.9
2014-Dec-15 16:19N 48°31' W 122°36'1 0.2
2014-Dec-15 10:33N 48°31' W 122°35'1 0.0
2014-Dec-13 20:27N 48°32' W 122°34'2 1.9
2014-Dec-13 19:32N 48°33' W 122°34'1 1.0
2014-Dec-13 18:32N 48°34' W 122°34'4 0.2
2014-Dec-12 19:20N 48°31' W 122°36'0 0.0
2014-Dec-12 15:17N 48°31' W 122°36'5 6.1
2014-Dec-12 14:24N 48°35' W 122°32'2 0.1
2014-Dec-11 21:25N 48°34' W 122°34'2 0.4
2014-Dec-11 16:31N 48°35' W 122°32'  

Dump ship's entire track history